sensor_id;sensor_type;location;lat;lon;timestamp;temperature;humidity
49379;DHT22;35254;47.990;-1.608;2023-12-07T00:00:35;20.30;42.20
49379;DHT22;35254;47.990;-1.608;2023-12-07T00:03:01;20.30;42.20
49379;DHT22;35254;47.990;-1.608;2023-12-07T00:05:27;20.40;42.50
49379;DHT22;35254;47.990;-1.608;2023-12-07T00:07:53;20.30;42.30
49379;DHT22;35254;47.990;-1.608;2023-12-07T00:10:19;20.30;42.10
49379;DHT22;35254;47.990;-1.608;2023-12-07T00:12:44;20.30;42.00
49379;DHT22;35254;47.990;-1.608;2023-12-07T00:15:10;20.30;42.20
49379;DHT22;35254;47.990;-1.608;2023-12-07T00:17:36;20.30;42.10
49379;DHT22;35254;47.990;-1.608;2023-12-07T00:20:01;20.30;42.30
49379;DHT22;35254;47.990;-1.608;2023-12-07T00:22:29;20.30;42.20
49379;DHT22;35254;47.990;-1.608;2023-12-07T00:24:55;20.30;42.30
49379;DHT22;35254;47.990;-1.608;2023-12-07T00:27:21;20.30;42.00
49379;DHT22;35254;47.990;-1.608;2023-12-07T00:29:46;20.30;42.20
49379;DHT22;35254;47.990;-1.608;2023-12-07T00:32:12;20.30;42.10
49379;DHT22;35254;47.990;-1.608;2023-12-07T00:34:38;20.30;42.20
49379;DHT22;35254;47.990;-1.608;2023-12-07T00:37:03;20.30;42.10
49379;DHT22;35254;47.990;-1.608;2023-12-07T00:39:29;20.30;42.00
49379;DHT22;35254;47.990;-1.608;2023-12-07T00:41:54;20.20;41.90
49379;DHT22;35254;47.990;-1.608;2023-12-07T00:44:20;20.20;42.00
49379;DHT22;35254;47.990;-1.608;2023-12-07T00:46:46;20.20;42.00
49379;DHT22;35254;47.990;-1.608;2023-12-07T00:49:11;20.30;42.00
49379;DHT22;35254;47.990;-1.608;2023-12-07T00:51:37;20.20;42.30
49379;DHT22;35254;47.990;-1.608;2023-12-07T00:54:03;20.20;42.00
49379;DHT22;35254;47.990;-1.608;2023-12-07T00:56:29;20.20;42.00
49379;DHT22;35254;47.990;-1.608;2023-12-07T00:58:54;20.20;42.00
49379;DHT22;35254;47.990;-1.608;2023-12-07T01:01:20;20.20;42.00
49379;DHT22;35254;47.990;-1.608;2023-12-07T01:03:45;20.20;41.90
49379;DHT22;35254;47.990;-1.608;2023-12-07T01:06:11;20.20;42.00
49379;DHT22;35254;47.990;-1.608;2023-12-07T01:08:37;20.20;41.90
49379;DHT22;35254;47.990;-1.608;2023-12-07T01:11:06;20.20;41.80
49379;DHT22;35254;47.990;-1.608;2023-12-07T01:13:32;20.20;41.90
49379;DHT22;35254;47.990;-1.608;2023-12-07T01:15:57;20.20;42.10
49379;DHT22;35254;47.990;-1.608;2023-12-07T01:18:23;20.20;42.10
49379;DHT22;35254;47.990;-1.608;2023-12-07T01:20:48;20.20;41.90
49379;DHT22;35254;47.990;-1.608;2023-12-07T01:23:14;20.20;41.90
49379;DHT22;35254;47.990;-1.608;2023-12-07T01:25:40;20.20;42.00
49379;DHT22;35254;47.990;-1.608;2023-12-07T01:28:06;20.20;42.00
49379;DHT22;35254;47.990;-1.608;2023-12-07T01:30:31;20.20;41.90
49379;DHT22;35254;47.990;-1.608;2023-12-07T01:32:57;20.20;42.10
49379;DHT22;35254;47.990;-1.608;2023-12-07T01:35:23;20.20;42.00
49379;DHT22;35254;47.990;-1.608;2023-12-07T01:37:48;20.20;42.10
49379;DHT22;35254;47.990;-1.608;2023-12-07T01:40:14;20.20;41.70
49379;DHT22;35254;47.990;-1.608;2023-12-07T01:42:48;20.10;41.70
49379;DHT22;35254;47.990;-1.608;2023-12-07T01:45:14;20.10;41.80
49379;DHT22;35254;47.990;-1.608;2023-12-07T01:47:40;20.20;41.90
49379;DHT22;35254;47.990;-1.608;2023-12-07T01:50:08;20.10;41.90
49379;DHT22;35254;47.990;-1.608;2023-12-07T01:52:38;20.10;41.80
49379;DHT22;35254;47.990;-1.608;2023-12-07T01:55:04;20.20;41.80
49379;DHT22;35254;47.990;-1.608;2023-12-07T01:57:31;20.10;41.80
49379;DHT22;35254;47.990;-1.608;2023-12-07T01:59:57;20.10;41.70
49379;DHT22;35254;47.990;-1.608;2023-12-07T02:02:23;20.10;41.50
49379;DHT22;35254;47.990;-1.608;2023-12-07T02:04:49;20.10;41.70
49379;DHT22;35254;47.990;-1.608;2023-12-07T02:07:15;20.10;42.70
49379;DHT22;35254;47.990;-1.608;2023-12-07T02:09:40;20.20;42.40
49379;DHT22;35254;47.990;-1.608;2023-12-07T02:12:06;20.20;42.00
49379;DHT22;35254;47.990;-1.608;2023-12-07T02:14:32;20.20;41.70
49379;DHT22;35254;47.990;-1.608;2023-12-07T02:17:14;20.10;41.60
49379;DHT22;35254;47.990;-1.608;2023-12-07T02:22:25;20.10;41.40
49379;DHT22;35254;47.990;-1.608;2023-12-07T02:25:05;20.10;41.40
49379;DHT22;35254;47.990;-1.608;2023-12-07T02:27:36;20.00;41.50
49379;DHT22;35254;47.990;-1.608;2023-12-07T02:30:02;20.00;41.60
49379;DHT22;35254;47.990;-1.608;2023-12-07T02:32:28;20.00;41.30
49379;DHT22;35254;47.990;-1.608;2023-12-07T02:34:54;20.00;41.40
49379;DHT22;35254;47.990;-1.608;2023-12-07T02:37:21;20.10;41.20
49379;DHT22;35254;47.990;-1.608;2023-12-07T02:39:48;20.00;41.40
49379;DHT22;35254;47.990;-1.608;2023-12-07T02:42:15;20.00;41.20
49379;DHT22;35254;47.990;-1.608;2023-12-07T02:44:43;20.00;41.20
49379;DHT22;35254;47.990;-1.608;2023-12-07T02:47:09;20.00;41.20
49379;DHT22;35254;47.990;-1.608;2023-12-07T02:49:34;20.00;41.20
49379;DHT22;35254;47.990;-1.608;2023-12-07T02:52:00;20.00;41.20
49379;DHT22;35254;47.990;-1.608;2023-12-07T02:54:26;20.00;41.30
49379;DHT22;35254;47.990;-1.608;2023-12-07T02:56:51;19.90;41.10
49379;DHT22;35254;47.990;-1.608;2023-12-07T02:59:17;20.00;41.10
49379;DHT22;35254;47.990;-1.608;2023-12-07T03:01:42;19.90;41.10
49379;DHT22;35254;47.990;-1.608;2023-12-07T03:04:08;19.90;41.10
49379;DHT22;35254;47.990;-1.608;2023-12-07T03:06:34;19.90;41.20
49379;DHT22;35254;47.990;-1.608;2023-12-07T03:08:59;19.90;41.20
49379;DHT22;35254;47.990;-1.608;2023-12-07T03:11:25;19.90;40.90
49379;DHT22;35254;47.990;-1.608;2023-12-07T03:13:51;19.90;41.10
49379;DHT22;35254;47.990;-1.608;2023-12-07T03:16:16;19.90;41.00
49379;DHT22;35254;47.990;-1.608;2023-12-07T03:18:42;19.90;41.10
49379;DHT22;35254;47.990;-1.608;2023-12-07T03:21:07;19.90;41.00
49379;DHT22;35254;47.990;-1.608;2023-12-07T03:23:33;19.90;40.80
49379;DHT22;35254;47.990;-1.608;2023-12-07T03:25:59;19.90;41.00
49379;DHT22;35254;47.990;-1.608;2023-12-07T03:28:24;19.90;40.90
49379;DHT22;35254;47.990;-1.608;2023-12-07T03:30:50;19.90;41.10
49379;DHT22;35254;47.990;-1.608;2023-12-07T03:33:15;19.90;40.90
49379;DHT22;35254;47.990;-1.608;2023-12-07T03:35:41;19.90;40.90
49379;DHT22;35254;47.990;-1.608;2023-12-07T03:38:07;19.90;40.80
49379;DHT22;35254;47.990;-1.608;2023-12-07T03:40:32;19.80;40.80
49379;DHT22;35254;47.990;-1.608;2023-12-07T03:42:58;19.90;40.90
49379;DHT22;35254;47.990;-1.608;2023-12-07T03:45:24;19.90;40.90
49379;DHT22;35254;47.990;-1.608;2023-12-07T03:47:50;19.90;40.80
49379;DHT22;35254;47.990;-1.608;2023-12-07T03:50:15;19.80;40.90
49379;DHT22;35254;47.990;-1.608;2023-12-07T03:52:41;19.90;41.00
49379;DHT22;35254;47.990;-1.608;2023-12-07T03:55:07;19.90;41.00
49379;DHT22;35254;47.990;-1.608;2023-12-07T03:57:33;19.80;41.00
49379;DHT22;35254;47.990;-1.608;2023-12-07T03:59:58;19.90;40.90
49379;DHT22;35254;47.990;-1.608;2023-12-07T04:02:24;19.80;40.90
49379;DHT22;35254;47.990;-1.608;2023-12-07T04:04:49;19.80;41.00
49379;DHT22;35254;47.990;-1.608;2023-12-07T04:07:15;19.80;41.10
49379;DHT22;35254;47.990;-1.608;2023-12-07T04:09:41;19.90;41.00
49379;DHT22;35254;47.990;-1.608;2023-12-07T04:12:06;19.80;40.90
49379;DHT22;35254;47.990;-1.608;2023-12-07T04:14:32;19.80;40.90
49379;DHT22;35254;47.990;-1.608;2023-12-07T04:16:57;19.80;41.00
49379;DHT22;35254;47.990;-1.608;2023-12-07T04:19:23;19.80;40.90
49379;DHT22;35254;47.990;-1.608;2023-12-07T04:21:49;19.80;41.00
49379;DHT22;35254;47.990;-1.608;2023-12-07T04:24:14;19.80;41.00
49379;DHT22;35254;47.990;-1.608;2023-12-07T04:26:40;19.90;41.00
49379;DHT22;35254;47.990;-1.608;2023-12-07T04:29:05;19.80;41.10
49379;DHT22;35254;47.990;-1.608;2023-12-07T04:31:31;19.80;41.10
49379;DHT22;35254;47.990;-1.608;2023-12-07T04:33:56;19.80;41.20
49379;DHT22;35254;47.990;-1.608;2023-12-07T04:36:22;19.80;41.20
49379;DHT22;35254;47.990;-1.608;2023-12-07T04:38:48;19.80;41.20
49379;DHT22;35254;47.990;-1.608;2023-12-07T04:41:13;19.80;41.00
49379;DHT22;35254;47.990;-1.608;2023-12-07T04:43:39;19.80;41.20
49379;DHT22;35254;47.990;-1.608;2023-12-07T04:46:05;19.80;41.10
49379;DHT22;35254;47.990;-1.608;2023-12-07T04:48:31;19.80;41.20
49379;DHT22;35254;47.990;-1.608;2023-12-07T04:50:57;19.80;41.00
49379;DHT22;35254;47.990;-1.608;2023-12-07T04:53:22;19.80;41.40
49379;DHT22;35254;47.990;-1.608;2023-12-07T04:55:48;19.80;41.20
49379;DHT22;35254;47.990;-1.608;2023-12-07T04:58:15;19.80;41.30
49379;DHT22;35254;47.990;-1.608;2023-12-07T05:00:41;19.80;41.30
49379;DHT22;35254;47.990;-1.608;2023-12-07T05:03:07;19.80;41.20
49379;DHT22;35254;47.990;-1.608;2023-12-07T05:05:32;19.80;41.20
49379;DHT22;35254;47.990;-1.608;2023-12-07T05:07:58;19.80;41.30
49379;DHT22;35254;47.990;-1.608;2023-12-07T05:10:23;19.80;41.20
49379;DHT22;35254;47.990;-1.608;2023-12-07T05:12:49;19.80;41.30
49379;DHT22;35254;47.990;-1.608;2023-12-07T05:15:15;19.80;41.20
49379;DHT22;35254;47.990;-1.608;2023-12-07T05:17:41;19.80;41.30
49379;DHT22;35254;47.990;-1.608;2023-12-07T05:20:07;19.80;41.20
49379;DHT22;35254;47.990;-1.608;2023-12-07T05:22:32;19.80;41.20
49379;DHT22;35254;47.990;-1.608;2023-12-07T05:24:58;19.80;41.40
49379;DHT22;35254;47.990;-1.608;2023-12-07T05:27:24;19.80;41.40
49379;DHT22;35254;47.990;-1.608;2023-12-07T05:29:49;19.80;41.60
49379;DHT22;35254;47.990;-1.608;2023-12-07T05:32:15;19.80;41.70
49379;DHT22;35254;47.990;-1.608;2023-12-07T05:34:41;19.80;41.70
49379;DHT22;35254;47.990;-1.608;2023-12-07T05:37:07;19.80;41.70
49379;DHT22;35254;47.990;-1.608;2023-12-07T05:39:33;19.80;41.70
49379;DHT22;35254;47.990;-1.608;2023-12-07T05:41:59;19.80;41.80
49379;DHT22;35254;47.990;-1.608;2023-12-07T05:44:24;19.80;41.80
49379;DHT22;35254;47.990;-1.608;2023-12-07T05:46:50;19.80;41.70
49379;DHT22;35254;47.990;-1.608;2023-12-07T05:49:15;19.80;41.90
49379;DHT22;35254;47.990;-1.608;2023-12-07T05:51:41;19.80;42.00
49379;DHT22;35254;47.990;-1.608;2023-12-07T05:54:07;19.80;42.10
49379;DHT22;35254;47.990;-1.608;2023-12-07T05:56:33;19.90;42.00
49379;DHT22;35254;47.990;-1.608;2023-12-07T05:58:58;19.90;42.00
49379;DHT22;35254;47.990;-1.608;2023-12-07T06:01:24;19.90;42.10
49379;DHT22;35254;47.990;-1.608;2023-12-07T06:03:50;19.80;42.00
49379;DHT22;35254;47.990;-1.608;2023-12-07T06:06:15;19.90;42.00
49379;DHT22;35254;47.990;-1.608;2023-12-07T06:08:41;19.90;41.90
49379;DHT22;35254;47.990;-1.608;2023-12-07T06:11:07;19.80;41.90
49379;DHT22;35254;47.990;-1.608;2023-12-07T06:13:33;19.80;42.00
49379;DHT22;35254;47.990;-1.608;2023-12-07T06:15:59;19.90;41.90
49379;DHT22;35254;47.990;-1.608;2023-12-07T06:18:25;19.90;41.90
49379;DHT22;35254;47.990;-1.608;2023-12-07T06:20:50;19.80;42.00
49379;DHT22;35254;47.990;-1.608;2023-12-07T06:23:16;19.90;41.90
49379;DHT22;35254;47.990;-1.608;2023-12-07T06:25:41;19.90;41.90
49379;DHT22;35254;47.990;-1.608;2023-12-07T06:28:07;19.90;41.60
49379;DHT22;35254;47.990;-1.608;2023-12-07T06:30:33;19.80;41.90
49379;DHT22;35254;47.990;-1.608;2023-12-07T06:32:59;19.80;41.90
49379;DHT22;35254;47.990;-1.608;2023-12-07T06:35:25;19.90;41.80
49379;DHT22;35254;47.990;-1.608;2023-12-07T06:37:51;19.90;41.80
49379;DHT22;35254;47.990;-1.608;2023-12-07T06:40:17;19.90;41.80
49379;DHT22;35254;47.990;-1.608;2023-12-07T06:42:42;19.90;41.80
49379;DHT22;35254;47.990;-1.608;2023-12-07T06:45:08;19.90;41.90
49379;DHT22;35254;47.990;-1.608;2023-12-07T06:47:39;19.90;41.80
49379;DHT22;35254;47.990;-1.608;2023-12-07T06:50:05;19.90;41.80
49379;DHT22;35254;47.990;-1.608;2023-12-07T06:52:34;19.90;41.80
49379;DHT22;35254;47.990;-1.608;2023-12-07T06:55:00;19.90;41.80
49379;DHT22;35254;47.990;-1.608;2023-12-07T06:57:28;19.90;41.80
49379;DHT22;35254;47.990;-1.608;2023-12-07T07:02:29;19.90;41.90
49379;DHT22;35254;47.990;-1.608;2023-12-07T07:04:55;19.90;41.90
49379;DHT22;35254;47.990;-1.608;2023-12-07T07:07:21;19.90;41.80
49379;DHT22;35254;47.990;-1.608;2023-12-07T07:09:46;20.00;41.90
49379;DHT22;35254;47.990;-1.608;2023-12-07T07:12:12;20.00;41.80
49379;DHT22;35254;47.990;-1.608;2023-12-07T07:14:38;20.00;41.90
49379;DHT22;35254;47.990;-1.608;2023-12-07T07:17:04;19.90;42.10
49379;DHT22;35254;47.990;-1.608;2023-12-07T07:19:30;20.00;42.30
49379;DHT22;35254;47.990;-1.608;2023-12-07T07:21:55;20.00;42.40
49379;DHT22;35254;47.990;-1.608;2023-12-07T07:24:21;20.00;42.60
49379;DHT22;35254;47.990;-1.608;2023-12-07T07:26:47;20.00;42.50
49379;DHT22;35254;47.990;-1.608;2023-12-07T07:29:12;20.00;42.70
49379;DHT22;35254;47.990;-1.608;2023-12-07T07:31:38;20.00;42.80
49379;DHT22;35254;47.990;-1.608;2023-12-07T07:34:03;20.00;42.90
49379;DHT22;35254;47.990;-1.608;2023-12-07T07:36:31;20.00;43.00
49379;DHT22;35254;47.990;-1.608;2023-12-07T07:38:56;20.00;42.90
49379;DHT22;35254;47.990;-1.608;2023-12-07T07:41:22;20.00;43.10
49379;DHT22;35254;47.990;-1.608;2023-12-07T07:43:48;20.00;42.90
49379;DHT22;35254;47.990;-1.608;2023-12-07T07:46:14;20.00;43.00
49379;DHT22;35254;47.990;-1.608;2023-12-07T07:48:40;20.10;43.00
49379;DHT22;35254;47.990;-1.608;2023-12-07T07:51:05;20.10;43.00
49379;DHT22;35254;47.990;-1.608;2023-12-07T07:53:31;20.00;43.00
49379;DHT22;35254;47.990;-1.608;2023-12-07T07:55:57;20.00;42.60
49379;DHT22;35254;47.990;-1.608;2023-12-07T07:58:22;20.00;42.80
49379;DHT22;35254;47.990;-1.608;2023-12-07T08:00:48;20.00;42.60
49379;DHT22;35254;47.990;-1.608;2023-12-07T08:03:14;20.10;43.20
49379;DHT22;35254;47.990;-1.608;2023-12-07T08:05:40;20.10;42.70
49379;DHT22;35254;47.990;-1.608;2023-12-07T08:08:05;20.10;43.20
49379;DHT22;35254;47.990;-1.608;2023-12-07T08:10:32;20.10;43.20
49379;DHT22;35254;47.990;-1.608;2023-12-07T08:12:58;20.10;43.10
49379;DHT22;35254;47.990;-1.608;2023-12-07T08:15:24;20.10;42.90
49379;DHT22;35254;47.990;-1.608;2023-12-07T08:17:49;20.10;42.80
49379;DHT22;35254;47.990;-1.608;2023-12-07T08:20:16;20.10;43.10
49379;DHT22;35254;47.990;-1.608;2023-12-07T08:22:42;20.10;43.10
49379;DHT22;35254;47.990;-1.608;2023-12-07T08:25:07;20.10;43.00
49379;DHT22;35254;47.990;-1.608;2023-12-07T08:27:36;20.10;43.00
49379;DHT22;35254;47.990;-1.608;2023-12-07T08:30:02;20.20;43.00
49379;DHT22;35254;47.990;-1.608;2023-12-07T08:32:28;20.10;43.00
49379;DHT22;35254;47.990;-1.608;2023-12-07T08:34:54;20.10;42.70
49379;DHT22;35254;47.990;-1.608;2023-12-07T08:37:20;20.20;42.90
49379;DHT22;35254;47.990;-1.608;2023-12-07T08:39:46;20.20;42.80
49379;DHT22;35254;47.990;-1.608;2023-12-07T08:42:11;20.20;42.90
49379;DHT22;35254;47.990;-1.608;2023-12-07T08:44:37;20.20;43.30
49379;DHT22;35254;47.990;-1.608;2023-12-07T08:47:04;20.20;43.50
49379;DHT22;35254;47.990;-1.608;2023-12-07T08:49:30;20.20;43.10
49379;DHT22;35254;47.990;-1.608;2023-12-07T08:51:57;20.20;43.70
49379;DHT22;35254;47.990;-1.608;2023-12-07T08:54:22;20.20;43.10
49379;DHT22;35254;47.990;-1.608;2023-12-07T08:56:48;20.20;43.10
49379;DHT22;35254;47.990;-1.608;2023-12-07T08:59:13;20.20;43.20
49379;DHT22;35254;47.990;-1.608;2023-12-07T09:01:39;20.20;43.00
49379;DHT22;35254;47.990;-1.608;2023-12-07T09:04:05;20.20;43.40
49379;DHT22;35254;47.990;-1.608;2023-12-07T09:06:31;20.20;43.10
49379;DHT22;35254;47.990;-1.608;2023-12-07T09:08:56;20.20;43.20
49379;DHT22;35254;47.990;-1.608;2023-12-07T09:11:22;20.20;43.30
49379;DHT22;35254;47.990;-1.608;2023-12-07T09:13:48;20.20;43.10
49379;DHT22;35254;47.990;-1.608;2023-12-07T09:16:13;20.20;43.00
49379;DHT22;35254;47.990;-1.608;2023-12-07T09:18:43;20.20;42.90
49379;DHT22;35254;47.990;-1.608;2023-12-07T09:21:10;20.20;43.20
49379;DHT22;35254;47.990;-1.608;2023-12-07T09:23:36;20.20;43.10
49379;DHT22;35254;47.990;-1.608;2023-12-07T09:26:02;20.30;43.40
49379;DHT22;35254;47.990;-1.608;2023-12-07T09:28:29;20.40;43.30
49379;DHT22;35254;47.990;-1.608;2023-12-07T09:30:54;20.30;43.40
49379;DHT22;35254;47.990;-1.608;2023-12-07T09:33:20;20.30;43.20
49379;DHT22;35254;47.990;-1.608;2023-12-07T09:35:45;20.30;43.30
49379;DHT22;35254;47.990;-1.608;2023-12-07T09:38:11;20.20;43.30
49379;DHT22;35254;47.990;-1.608;2023-12-07T09:40:36;20.30;43.30
49379;DHT22;35254;47.990;-1.608;2023-12-07T09:43:02;20.30;43.10
49379;DHT22;35254;47.990;-1.608;2023-12-07T09:45:28;20.30;43.30
49379;DHT22;35254;47.990;-1.608;2023-12-07T09:47:55;20.30;43.10
49379;DHT22;35254;47.990;-1.608;2023-12-07T09:50:22;20.30;43.50
49379;DHT22;35254;47.990;-1.608;2023-12-07T09:52:52;20.30;43.30
49379;DHT22;35254;47.990;-1.608;2023-12-07T09:55:18;20.30;43.30
49379;DHT22;35254;47.990;-1.608;2023-12-07T09:57:45;20.30;42.90
49379;DHT22;35254;47.990;-1.608;2023-12-07T10:00:12;20.30;43.40
49379;DHT22;35254;47.990;-1.608;2023-12-07T10:02:40;20.30;43.40
49379;DHT22;35254;47.990;-1.608;2023-12-07T10:05:10;20.30;43.00
49379;DHT22;35254;47.990;-1.608;2023-12-07T10:07:40;20.30;43.70
49379;DHT22;35254;47.990;-1.608;2023-12-07T10:10:07;20.30;43.20
49379;DHT22;35254;47.990;-1.608;2023-12-07T10:12:34;20.30;43.90
49379;DHT22;35254;47.990;-1.608;2023-12-07T10:15:01;20.30;43.70
49379;DHT22;35254;47.990;-1.608;2023-12-07T10:17:51;20.40;44.00
49379;DHT22;35254;47.990;-1.608;2023-12-07T10:20:23;20.40;44.10
49379;DHT22;35254;47.990;-1.608;2023-12-07T10:25:30;20.40;44.10
49379;DHT22;35254;47.990;-1.608;2023-12-07T10:27:56;20.30;44.00
49379;DHT22;35254;47.990;-1.608;2023-12-07T10:30:22;20.40;44.10
49379;DHT22;35254;47.990;-1.608;2023-12-07T10:32:51;20.40;43.80
49379;DHT22;35254;47.990;-1.608;2023-12-07T10:35:18;20.30;43.80
49379;DHT22;35254;47.990;-1.608;2023-12-07T10:37:45;20.30;43.60
49379;DHT22;35254;47.990;-1.608;2023-12-07T10:40:10;20.40;44.10
49379;DHT22;35254;47.990;-1.608;2023-12-07T10:42:37;20.40;44.30
49379;DHT22;35254;47.990;-1.608;2023-12-07T10:45:06;20.40;44.10
49379;DHT22;35254;47.990;-1.608;2023-12-07T10:47:35;20.40;44.20
49379;DHT22;35254;47.990;-1.608;2023-12-07T10:50:03;20.40;44.00
49379;DHT22;35254;47.990;-1.608;2023-12-07T10:52:32;20.40;44.10
49379;DHT22;35254;47.990;-1.608;2023-12-07T10:55:03;20.40;43.70
49379;DHT22;35254;47.990;-1.608;2023-12-07T10:57:33;20.40;44.10
49379;DHT22;35254;47.990;-1.608;2023-12-07T11:00:00;20.40;44.20
49379;DHT22;35254;47.990;-1.608;2023-12-07T11:02:28;20.40;44.40
49379;DHT22;35254;47.990;-1.608;2023-12-07T11:04:56;20.40;44.00
49379;DHT22;35254;47.990;-1.608;2023-12-07T11:07:25;20.40;43.80
49379;DHT22;35254;47.990;-1.608;2023-12-07T11:10:00;20.30;43.70
49379;DHT22;35254;47.990;-1.608;2023-12-07T11:12:38;20.40;44.10
49379;DHT22;35254;47.990;-1.608;2023-12-07T11:15:06;20.40;44.50
49379;DHT22;35254;47.990;-1.608;2023-12-07T11:17:51;20.40;44.40
49379;DHT22;35254;47.990;-1.608;2023-12-07T11:20:41;20.40;44.60
49379;DHT22;35254;47.990;-1.608;2023-12-07T11:23:10;20.40;44.60
49379;DHT22;35254;47.990;-1.608;2023-12-07T11:25:39;20.40;44.10
49379;DHT22;35254;47.990;-1.608;2023-12-07T11:28:06;20.40;44.00
49379;DHT22;35254;47.990;-1.608;2023-12-07T11:30:35;20.40;44.80
49379;DHT22;35254;47.990;-1.608;2023-12-07T11:33:04;20.40;44.80
49379;DHT22;35254;47.990;-1.608;2023-12-07T11:35:30;20.40;44.80
49379;DHT22;35254;47.990;-1.608;2023-12-07T11:38:09;20.40;44.80
49379;DHT22;35254;47.990;-1.608;2023-12-07T11:40:41;20.40;44.90
49379;DHT22;35254;47.990;-1.608;2023-12-07T11:43:07;20.40;44.80
49379;DHT22;35254;47.990;-1.608;2023-12-07T11:45:37;20.40;44.90
49379;DHT22;35254;47.990;-1.608;2023-12-07T11:48:09;20.40;44.90
49379;DHT22;35254;47.990;-1.608;2023-12-07T11:50:35;20.40;44.90
49379;DHT22;35254;47.990;-1.608;2023-12-07T11:53:01;20.40;44.90
49379;DHT22;35254;47.990;-1.608;2023-12-07T11:55:26;20.40;45.00
49379;DHT22;35254;47.990;-1.608;2023-12-07T11:57:52;20.40;45.10
49379;DHT22;35254;47.990;-1.608;2023-12-07T12:00:20;20.40;45.10
49379;DHT22;35254;47.990;-1.608;2023-12-07T12:02:47;20.40;44.60
49379;DHT22;35254;47.990;-1.608;2023-12-07T12:05:14;20.40;44.80
49379;DHT22;35254;47.990;-1.608;2023-12-07T12:07:39;20.40;45.00
49379;DHT22;35254;47.990;-1.608;2023-12-07T12:10:05;20.40;44.90
49379;DHT22;35254;47.990;-1.608;2023-12-07T12:12:33;20.40;45.10
49379;DHT22;35254;47.990;-1.608;2023-12-07T12:14:59;20.40;44.90
49379;DHT22;35254;47.990;-1.608;2023-12-07T12:17:25;20.40;44.50
49379;DHT22;35254;47.990;-1.608;2023-12-07T12:19:50;20.40;45.00
49379;DHT22;35254;47.990;-1.608;2023-12-07T12:22:20;20.40;44.40
49379;DHT22;35254;47.990;-1.608;2023-12-07T12:24:46;20.40;45.30
49379;DHT22;35254;47.990;-1.608;2023-12-07T12:27:13;20.50;44.70
49379;DHT22;35254;47.990;-1.608;2023-12-07T12:29:39;20.40;44.80
49379;DHT22;35254;47.990;-1.608;2023-12-07T12:32:06;20.40;45.30
49379;DHT22;35254;47.990;-1.608;2023-12-07T12:34:34;20.40;45.20
49379;DHT22;35254;47.990;-1.608;2023-12-07T12:37:00;20.40;44.50
49379;DHT22;35254;47.990;-1.608;2023-12-07T12:39:29;20.40;45.10
49379;DHT22;35254;47.990;-1.608;2023-12-07T12:41:57;20.50;45.20
49379;DHT22;35254;47.990;-1.608;2023-12-07T12:44:24;20.40;45.30
49379;DHT22;35254;47.990;-1.608;2023-12-07T12:46:50;20.50;45.20
49379;DHT22;35254;47.990;-1.608;2023-12-07T12:49:15;20.40;44.80
49379;DHT22;35254;47.990;-1.608;2023-12-07T12:51:44;20.40;44.90
49379;DHT22;35254;47.990;-1.608;2023-12-07T12:54:09;20.40;44.70
49379;DHT22;35254;47.990;-1.608;2023-12-07T12:56:37;20.40;45.10
49379;DHT22;35254;47.990;-1.608;2023-12-07T12:59:02;20.40;45.30
49379;DHT22;35254;47.990;-1.608;2023-12-07T13:01:28;20.40;45.30
49379;DHT22;35254;47.990;-1.608;2023-12-07T13:03:54;20.40;45.00
49379;DHT22;35254;47.990;-1.608;2023-12-07T13:06:20;20.40;44.90
49379;DHT22;35254;47.990;-1.608;2023-12-07T13:08:47;20.40;45.20
49379;DHT22;35254;47.990;-1.608;2023-12-07T13:11:16;20.40;45.10
49379;DHT22;35254;47.990;-1.608;2023-12-07T13:13:45;20.40;44.70
49379;DHT22;35254;47.990;-1.608;2023-12-07T13:16:12;20.40;44.80
49379;DHT22;35254;47.990;-1.608;2023-12-07T13:18:40;20.40;45.30
49379;DHT22;35254;47.990;-1.608;2023-12-07T13:21:06;20.40;44.70
49379;DHT22;35254;47.990;-1.608;2023-12-07T13:23:31;20.40;45.30
49379;DHT22;35254;47.990;-1.608;2023-12-07T13:25:57;20.40;45.30
49379;DHT22;35254;47.990;-1.608;2023-12-07T13:28:22;20.50;45.20
49379;DHT22;35254;47.990;-1.608;2023-12-07T13:30:48;20.40;45.20
49379;DHT22;35254;47.990;-1.608;2023-12-07T13:33:14;20.50;45.30
49379;DHT22;35254;47.990;-1.608;2023-12-07T13:35:40;20.50;45.10
49379;DHT22;35254;47.990;-1.608;2023-12-07T13:38:05;20.50;45.30
49379;DHT22;35254;47.990;-1.608;2023-12-07T13:40:31;20.40;44.60
49379;DHT22;35254;47.990;-1.608;2023-12-07T13:42:56;20.40;44.60
49379;DHT22;35254;47.990;-1.608;2023-12-07T13:45:22;20.40;45.30
49379;DHT22;35254;47.990;-1.608;2023-12-07T13:47:47;20.40;44.70
49379;DHT22;35254;47.990;-1.608;2023-12-07T13:50:13;20.40;45.20
49379;DHT22;35254;47.990;-1.608;2023-12-07T13:52:40;20.40;45.10
49379;DHT22;35254;47.990;-1.608;2023-12-07T13:55:06;20.40;44.90
49379;DHT22;35254;47.990;-1.608;2023-12-07T13:57:33;20.50;45.30
49379;DHT22;35254;47.990;-1.608;2023-12-07T13:59:58;20.40;44.80
49379;DHT22;35254;47.990;-1.608;2023-12-07T14:02:24;20.40;45.20
49379;DHT22;35254;47.990;-1.608;2023-12-07T14:04:51;20.40;45.20
49379;DHT22;35254;47.990;-1.608;2023-12-07T14:07:18;20.40;45.10
49379;DHT22;35254;47.990;-1.608;2023-12-07T14:09:46;20.40;45.10
49379;DHT22;35254;47.990;-1.608;2023-12-07T14:12:13;20.40;45.20
49379;DHT22;35254;47.990;-1.608;2023-12-07T14:14:43;20.40;45.20
49379;DHT22;35254;47.990;-1.608;2023-12-07T14:17:10;20.40;45.00
49379;DHT22;35254;47.990;-1.608;2023-12-07T14:19:35;20.40;45.10
49379;DHT22;35254;47.990;-1.608;2023-12-07T14:22:01;20.40;45.30
49379;DHT22;35254;47.990;-1.608;2023-12-07T14:24:27;20.40;45.20
49379;DHT22;35254;47.990;-1.608;2023-12-07T14:26:56;20.40;45.30
49379;DHT22;35254;47.990;-1.608;2023-12-07T14:29:22;20.40;44.70
49379;DHT22;35254;47.990;-1.608;2023-12-07T14:31:50;20.40;45.30
49379;DHT22;35254;47.990;-1.608;2023-12-07T14:34:17;20.40;45.50
49379;DHT22;35254;47.990;-1.608;2023-12-07T14:36:43;20.40;45.60
49379;DHT22;35254;47.990;-1.608;2023-12-07T14:39:11;20.40;45.20
49379;DHT22;35254;47.990;-1.608;2023-12-07T14:41:43;20.40;45.30
49379;DHT22;35254;47.990;-1.608;2023-12-07T14:44:10;20.40;45.50
49379;DHT22;35254;47.990;-1.608;2023-12-07T14:46:35;20.40;45.40
49379;DHT22;35254;47.990;-1.608;2023-12-07T14:49:01;20.40;45.40
49379;DHT22;35254;47.990;-1.608;2023-12-07T14:51:28;20.40;45.50
49379;DHT22;35254;47.990;-1.608;2023-12-07T14:53:54;20.40;45.30
49379;DHT22;35254;47.990;-1.608;2023-12-07T14:56:20;20.40;45.40
49379;DHT22;35254;47.990;-1.608;2023-12-07T14:58:48;20.40;45.20
49379;DHT22;35254;47.990;-1.608;2023-12-07T15:01:13;20.40;45.40
49379;DHT22;35254;47.990;-1.608;2023-12-07T15:03:40;20.40;45.40
49379;DHT22;35254;47.990;-1.608;2023-12-07T15:06:05;20.40;45.10
49379;DHT22;35254;47.990;-1.608;2023-12-07T15:08:31;20.30;45.30
49379;DHT22;35254;47.990;-1.608;2023-12-07T15:10:57;20.30;45.30
49379;DHT22;35254;47.990;-1.608;2023-12-07T15:13:22;20.30;45.10
49379;DHT22;35254;47.990;-1.608;2023-12-07T15:15:48;20.30;44.90
49379;DHT22;35254;47.990;-1.608;2023-12-07T15:18:13;20.30;44.90